createdAt,value
2023-02-13T00:00:19.137Z,59.50
2023-02-13T00:02:45.876Z,60.12
2023-02-13T00:05:12.516Z,59.85
2023-02-13T00:07:39.416Z,60.51
2023-02-13T00:10:06.804Z,60.23
2023-02-13T00:12:33.548Z,59.29
2023-02-13T00:15:00.600Z,60.04
2023-02-13T00:17:27.485Z,60.39
2023-02-13T00:19:54.092Z,60.20
2023-02-13T00:22:20.761Z,59.68
2023-02-13T00:24:47.349Z,59.11
2023-02-13T00:27:14.236Z,59.65
2023-02-13T00:29:40.852Z,59.76
2023-02-13T00:32:07.594Z,60.24
2023-02-13T00:34:34.375Z,59.44
2023-02-13T00:37:03.352Z,59.42
2023-02-13T00:39:30.089Z,58.96
2023-02-13T00:41:56.692Z,59.03
2023-02-13T00:44:23.303Z,59.60
2023-02-13T00:46:49.967Z,58.94
2023-02-13T00:49:16.997Z,59.28
2023-02-13T00:51:43.690Z,59.07
2023-02-13T00:54:10.355Z,59.14
2023-02-13T00:56:37.225Z,59.14
2023-02-13T00:59:05.316Z,59.31
2023-02-13T01:01:32.442Z,59.16
2023-02-13T01:03:59.928Z,59.50
2023-02-13T01:06:27.808Z,59.68
2023-02-13T01:08:54.491Z,59.87
2023-02-13T01:11:21.223Z,60.05
2023-02-13T01:13:47.736Z,60.04
2023-02-13T01:16:17.803Z,60.88
2023-02-13T01:18:45.333Z,61.27
2023-02-13T01:21:18.314Z,61.40
2023-02-13T01:23:46.198Z,61.37
2023-02-13T01:26:19.438Z,61.16
2023-02-13T01:28:46.648Z,60.99
2023-02-13T01:31:13.411Z,60.44
2023-02-13T01:33:40.121Z,61.96
2023-02-13T01:36:11.851Z,61.77
2023-02-13T01:38:38.724Z,62.17
2023-02-13T01:41:05.673Z,62.17
2023-02-13T01:43:58.699Z,62.61
2023-02-13T01:46:35.754Z,62.17
2023-02-13T01:49:19.560Z,62.00
2023-02-13T01:51:49.600Z,61.87
2023-02-13T01:54:23.681Z,62.60
2023-02-13T01:56:55.332Z,61.80
2023-02-13T01:59:29.257Z,62.58
2023-02-13T02:01:58.700Z,62.06
2023-02-13T02:04:31.891Z,62.42
2023-02-13T02:07:03.284Z,62.64
2023-02-13T02:09:37.489Z,62.11
2023-02-13T02:12:22.474Z,62.36
2023-02-13T02:14:50.436Z,62.14
2023-02-13T02:17:18.805Z,62.68
2023-02-13T02:20:10.386Z,62.52
2023-02-13T02:22:55.181Z,62.84
2023-02-13T02:25:24.612Z,63.16
2023-02-13T02:28:22.550Z,63.74
2023-02-13T02:31:23.499Z,63.75
2023-02-13T02:33:59.358Z,64.08
2023-02-13T02:36:39.929Z,63.00
2023-02-13T02:39:17.374Z,64.66
2023-02-13T02:41:58.214Z,63.97
2023-02-13T02:44:47.857Z,63.76
2023-02-13T02:48:00.494Z,63.77
2023-02-13T02:50:35.674Z,63.80
2023-02-13T02:53:25.149Z,64.00
2023-02-13T02:56:10.677Z,63.71
2023-02-13T02:59:06.898Z,64.00
2023-02-13T03:01:54.633Z,63.92
2023-02-13T03:04:52.067Z,64.02
2023-02-13T03:07:19.737Z,64.27
2023-02-13T03:10:08.624Z,64.39
2023-02-13T03:13:04.125Z,63.82
2023-02-13T03:15:31.751Z,63.40
2023-02-13T03:18:18.007Z,63.15
2023-02-13T03:21:29.458Z,63.66
2023-02-13T03:24:22.583Z,63.26
2023-02-13T03:27:08.923Z,63.02
2023-02-13T03:30:07.439Z,62.14
2023-02-13T03:32:59.654Z,62.01
2023-02-13T03:36:01.665Z,61.97
2023-02-13T03:38:46.837Z,61.71
2023-02-13T03:41:20.176Z,61.04
2023-02-13T03:43:58.839Z,61.94
2023-02-13T03:46:28.978Z,61.72
2023-02-13T03:49:15.954Z,61.61
2023-02-13T03:51:49.235Z,61.37
2023-02-13T03:54:49.745Z,61.17
2023-02-13T03:57:39.023Z,61.50
2023-02-13T04:00:09.389Z,61.70
2023-02-13T04:02:54.344Z,60.64
2023-02-13T04:05:25.990Z,60.98
2023-02-13T04:07:52.769Z,61.03
2023-02-13T04:10:19.990Z,60.42
2023-02-13T04:13:09.604Z,59.58
2023-02-13T04:15:46.571Z,59.00
2023-02-13T04:18:25.604Z,59.06
2023-02-13T04:20:52.556Z,59.02
2023-02-13T04:23:19.834Z,62.01
2023-02-13T04:25:50.525Z,63.33
2023-02-13T04:28:17.412Z,63.27
2023-02-13T04:30:43.997Z,63.60
2023-02-13T04:33:10.632Z,63.68
2023-02-13T04:35:37.248Z,63.70
2023-02-13T04:38:04.679Z,64.56
2023-02-13T04:40:31.313Z,64.14
2023-02-13T04:42:58.396Z,63.36
2023-02-13T04:45:25.064Z,62.75
2023-02-13T04:47:53.979Z,62.39
2023-02-13T04:50:21.622Z,62.29
2023-02-13T04:52:53.049Z,62.06
2023-02-13T04:55:19.782Z,62.84
2023-02-13T04:57:46.465Z,63.01
2023-02-13T05:00:13.540Z,64.15
2023-02-13T05:02:40.098Z,64.60
2023-02-13T05:05:06.778Z,64.15
2023-02-13T05:07:33.299Z,63.52
2023-02-13T05:09:59.929Z,64.24
2023-02-13T05:12:26.592Z,64.09
2023-02-13T05:14:53.410Z,64.40
2023-02-13T05:17:20.106Z,64.73
2023-02-13T05:19:46.816Z,63.42
2023-02-13T05:22:32.192Z,64.04
2023-02-13T05:24:58.826Z,63.05
2023-02-13T05:27:25.408Z,62.86
2023-02-13T05:29:52.137Z,63.26
2023-02-13T05:32:18.845Z,64.28
2023-02-13T05:34:45.594Z,64.26
2023-02-13T05:37:12.321Z,64.12
2023-02-13T05:39:39.072Z,63.82
2023-02-13T05:42:05.927Z,63.05
2023-02-13T05:44:32.851Z,63.42
2023-02-13T05:46:59.629Z,64.24
2023-02-13T05:49:26.242Z,64.80
2023-02-13T05:51:52.849Z,64.40
2023-02-13T05:54:19.469Z,64.10
2023-02-13T05:56:46.844Z,63.95
2023-02-13T05:59:13.941Z,63.18
2023-02-13T06:01:40.836Z,62.73
2023-02-13T06:04:07.652Z,62.84
2023-02-13T06:06:34.335Z,62.54
2023-02-13T06:09:01.117Z,63.38
2023-02-13T06:11:27.655Z,63.72
2023-02-13T06:13:54.284Z,63.44
2023-02-13T06:16:21.067Z,62.92
2023-02-13T06:18:47.912Z,62.61
2023-02-13T06:21:14.534Z,63.43
2023-02-13T06:23:41.109Z,62.69
2023-02-13T06:26:09.042Z,62.08
2023-02-13T06:28:35.998Z,62.36
2023-02-13T06:31:03.003Z,62.78
2023-02-13T06:33:29.834Z,62.91
2023-02-13T06:35:56.498Z,62.50
2023-02-13T06:38:24.251Z,63.27
2023-02-13T06:40:51.113Z,62.61
2023-02-13T06:43:18.094Z,62.29
2023-02-13T06:45:46.815Z,62.53
2023-02-13T06:48:14.114Z,63.12
2023-02-13T06:50:40.840Z,63.58
2023-02-13T06:53:07.458Z,63.21
2023-02-13T06:55:34.121Z,64.43
2023-02-13T06:58:00.769Z,64.44
2023-02-13T07:00:27.502Z,65.24
2023-02-13T07:02:54.231Z,64.46
2023-02-13T07:05:20.830Z,64.41
2023-02-13T07:07:47.442Z,64.48
2023-02-13T07:10:14.648Z,63.83
2023-02-13T07:12:41.822Z,64.22
2023-02-13T07:15:09.162Z,63.08
2023-02-13T07:17:36.406Z,63.24
2023-02-13T07:20:04.569Z,63.47
2023-02-13T07:22:32.738Z,64.33
2023-02-13T07:25:00.001Z,65.43
2023-02-13T07:27:29.201Z,65.61
2023-02-13T07:29:58.724Z,64.70
2023-02-13T07:32:25.738Z,64.27
2023-02-13T07:35:01.674Z,63.46
2023-02-13T07:37:30.733Z,63.82
2023-02-13T07:39:57.465Z,64.40
2023-02-13T07:42:24.306Z,65.44
2023-02-13T07:44:50.858Z,65.51
2023-02-13T07:47:19.790Z,65.84
2023-02-13T07:49:46.777Z,66.28
2023-02-13T07:52:13.598Z,66.09
2023-02-13T07:54:47.039Z,65.23
2023-02-13T07:57:17.013Z,65.75
2023-02-13T07:59:43.762Z,65.36
2023-02-13T08:02:14.878Z,65.14
2023-02-13T08:04:46.067Z,65.16
2023-02-13T08:07:14.220Z,65.01
2023-02-13T08:09:59.563Z,64.54
2023-02-13T08:12:26.217Z,65.13
2023-02-13T08:14:53.625Z,65.24
2023-02-13T08:17:20.335Z,64.79
2023-02-13T08:19:47.057Z,65.00
2023-02-13T08:22:13.734Z,65.03
2023-02-13T08:24:40.653Z,64.91
2023-02-13T08:27:07.337Z,64.84
2023-02-13T08:29:34.510Z,64.97
2023-02-13T08:32:01.148Z,65.00
2023-02-13T08:34:27.702Z,65.05
2023-02-13T08:36:54.374Z,64.92
2023-02-13T08:39:21.432Z,65.03
2023-02-13T08:41:47.968Z,64.98
2023-02-13T08:44:14.487Z,64.58
2023-02-13T08:46:41.130Z,65.96
2023-02-13T08:49:07.680Z,65.36
2023-02-13T08:51:34.380Z,65.71
2023-02-13T08:54:01.010Z,65.09
2023-02-13T08:56:27.683Z,64.25
2023-02-13T08:58:54.961Z,64.92
2023-02-13T09:01:23.999Z,65.77
2023-02-13T09:03:50.533Z,64.56
2023-02-13T09:06:17.132Z,64.55
2023-02-13T09:08:43.821Z,63.75
2023-02-13T09:11:10.519Z,63.55
2023-02-13T09:13:37.224Z,62.93
2023-02-13T09:16:06.861Z,63.17
2023-02-13T09:18:35.102Z,63.07
2023-02-13T09:21:07.838Z,63.31
2023-02-13T09:23:37.421Z,62.82
2023-02-13T09:26:06.964Z,62.92
2023-02-13T09:28:35.631Z,62.62
2023-02-13T09:31:10.480Z,63.09
2023-02-13T09:33:37.700Z,62.72
2023-02-13T09:36:06.098Z,63.68
2023-02-13T09:38:33.564Z,63.27
2023-02-13T09:41:05.396Z,63.01
2023-02-13T09:43:41.023Z,62.65
2023-02-13T09:46:38.278Z,63.17
2023-02-13T09:49:18.691Z,63.59
2023-02-13T09:51:54.026Z,64.03
2023-02-13T09:54:21.102Z,63.89
2023-02-13T09:57:27.978Z,64.21
2023-02-13T10:00:19.587Z,63.16
2023-02-13T10:02:58.338Z,63.57
2023-02-13T10:05:46.717Z,62.71
2023-02-13T10:08:37.989Z,61.93
2023-02-13T10:11:25.774Z,63.24
2023-02-13T10:14:10.476Z,62.77
2023-02-13T10:17:10.905Z,61.60
2023-02-13T10:19:44.478Z,60.63
2023-02-13T10:22:15.952Z,61.00
2023-02-13T10:24:51.715Z,57.92
2023-02-13T10:27:25.801Z,58.45
2023-02-13T10:30:09.101Z,59.12
2023-02-13T10:33:11.288Z,59.04
2023-02-13T10:35:39.251Z,59.03
2023-02-13T10:38:18.641Z,56.04
2023-02-13T10:41:23.558Z,57.03
2023-02-13T10:44:10.788Z,58.48
2023-02-13T10:46:55.862Z,57.77
2023-02-13T10:49:35.795Z,56.60
2023-02-13T10:52:17.920Z,56.32
2023-02-13T10:54:47.914Z,57.45
2023-02-13T10:57:24.620Z,57.02
2023-02-13T10:59:57.386Z,57.51
2023-02-13T11:02:29.762Z,57.91
2023-02-13T11:05:11.427Z,56.59
2023-02-13T11:07:39.676Z,56.34
2023-02-13T11:10:18.284Z,57.55
2023-02-13T11:12:45.690Z,58.20
2023-02-13T11:15:32.768Z,56.26
2023-02-13T11:18:11.809Z,56.38
2023-02-13T11:20:44.407Z,55.95
2023-02-13T11:23:32.343Z,56.82
2023-02-13T11:26:28.325Z,56.90
2023-02-13T11:28:57.693Z,55.76
2023-02-13T11:31:31.548Z,56.41
2023-02-13T11:34:17.302Z,56.49
2023-02-13T11:36:44.159Z,55.66
2023-02-13T11:39:22.519Z,56.58
2023-02-13T11:41:50.877Z,56.30
2023-02-13T11:44:26.248Z,55.26
2023-02-13T11:46:54.202Z,56.59
2023-02-13T11:49:35.103Z,57.19
2023-02-13T11:52:05.294Z,56.80
2023-02-13T11:54:36.725Z,57.75
2023-02-13T11:57:21.875Z,57.22
2023-02-13T11:59:51.392Z,57.54
2023-02-13T12:02:21.002Z,57.04
2023-02-13T12:04:50.194Z,56.91
2023-02-13T12:07:24.775Z,57.36
2023-02-13T12:09:58.569Z,58.11
2023-02-13T12:12:32.855Z,58.63
2023-02-13T12:15:03.657Z,58.52
2023-02-13T12:17:32.478Z,58.89
2023-02-13T12:20:00.259Z,57.85
2023-02-13T12:22:45.200Z,57.91
2023-02-13T12:25:25.842Z,56.63
2023-02-13T12:28:12.679Z,56.99
2023-02-13T12:31:00.031Z,56.89
2023-02-13T12:33:59.352Z,55.98
2023-02-13T12:36:45.044Z,56.26
2023-02-13T12:39:17.893Z,56.55
2023-02-13T12:42:04.794Z,54.85
2023-02-13T12:44:43.178Z,56.27
2023-02-13T12:47:23.840Z,54.94
2023-02-13T12:50:28.666Z,56.67
2023-02-13T12:53:23.250Z,55.89
2023-02-13T12:56:40.892Z,56.35
2023-02-13T12:59:25.667Z,56.60
2023-02-13T13:02:11.567Z,56.31
2023-02-13T13:04:47.951Z,55.73
2023-02-13T13:07:23.575Z,55.91
2023-02-13T13:09:55.566Z,56.21
2023-02-13T13:12:33.042Z,55.68
2023-02-13T13:15:23.624Z,56.02
2023-02-13T13:18:14.085Z,55.99
2023-02-13T13:21:00.042Z,56.18
2023-02-13T13:23:50.116Z,56.23
2023-02-13T13:26:21.251Z,57.62
2023-02-13T13:28:52.586Z,57.69
2023-02-13T13:31:21.202Z,57.75
2023-02-13T13:33:48.284Z,56.80
2023-02-13T13:36:33.202Z,57.18
2023-02-13T13:39:36.831Z,56.27
2023-02-13T13:42:13.353Z,56.52
2023-02-13T13:45:28.547Z,55.57
2023-02-13T13:48:06.208Z,56.20
2023-02-13T13:50:37.594Z,56.41
2023-02-13T13:53:09.038Z,56.13
2023-02-13T13:55:48.444Z,55.42
2023-02-13T13:58:40.750Z,56.36
2023-02-13T14:01:29.640Z,56.00
2023-02-13T14:04:04.641Z,55.54
2023-02-13T14:06:43.302Z,54.90
2023-02-13T14:09:43.464Z,54.65
2023-02-13T14:12:37.165Z,55.38
2023-02-13T14:15:04.130Z,54.76
2023-02-13T14:18:01.279Z,54.62
2023-02-13T14:20:33.732Z,55.25
2023-02-13T14:23:33.871Z,54.37
2023-02-13T14:26:11.044Z,54.09
2023-02-13T14:28:39.746Z,53.40
2023-02-13T14:31:25.049Z,53.43
2023-02-13T14:34:10.639Z,52.79
2023-02-13T14:36:46.689Z,53.21
2023-02-13T14:39:26.717Z,52.98
2023-02-13T14:41:56.464Z,52.35
2023-02-13T14:44:33.844Z,52.85
2023-02-13T14:47:05.171Z,52.59
2023-02-13T14:49:36.676Z,52.94
2023-02-13T14:52:07.312Z,53.99
2023-02-13T14:54:42.094Z,53.83
2023-02-13T14:57:20.017Z,53.52
2023-02-13T14:59:50.245Z,53.41
2023-02-13T15:02:26.385Z,52.72
2023-02-13T15:05:02.295Z,53.39
2023-02-13T15:07:40.023Z,52.51
2023-02-13T15:10:31.946Z,52.80
2023-02-13T15:13:00.748Z,52.67
2023-02-13T15:15:31.990Z,52.77
2023-02-13T15:18:07.643Z,53.08
2023-02-13T15:20:37.584Z,53.06
2023-02-13T15:23:09.430Z,53.01
2023-02-13T15:25:41.003Z,53.51
2023-02-13T15:28:16.972Z,54.03
2023-02-13T15:30:53.927Z,54.17
2023-02-13T15:33:22.913Z,53.95
2023-02-13T15:36:01.440Z,53.75
2023-02-13T15:38:34.534Z,53.91
2023-02-13T15:41:12.106Z,54.18
2023-02-13T15:43:48.307Z,54.33
2023-02-13T15:46:20.710Z,54.43
2023-02-13T15:48:47.872Z,54.95
2023-02-13T15:51:25.266Z,54.84
2023-02-13T15:54:00.588Z,54.83
2023-02-13T15:56:27.536Z,54.92
2023-02-13T15:58:55.909Z,54.72
2023-02-13T16:01:23.277Z,54.79
2023-02-13T16:03:54.103Z,54.70
2023-02-13T16:06:24.930Z,55.16
2023-02-13T16:08:57.633Z,55.26
2023-02-13T16:11:24.492Z,55.29
2023-02-13T16:14:03.311Z,55.06
2023-02-13T16:16:44.075Z,54.46
2023-02-13T16:19:36.028Z,54.67
2023-02-13T16:22:31.095Z,54.29
2023-02-13T16:25:28.838Z,54.52
2023-02-13T16:27:58.936Z,54.38
2023-02-13T16:30:35.851Z,54.93
2023-02-13T16:33:15.043Z,54.98
2023-02-13T16:35:49.008Z,54.82
2023-02-13T16:38:27.626Z,54.90
2023-02-13T16:40:55.773Z,55.15
2023-02-13T16:43:51.582Z,54.48
2023-02-13T16:46:22.769Z,54.33
2023-02-13T16:49:01.456Z,54.23
2023-02-13T16:51:54.105Z,54.64
2023-02-13T16:55:02.305Z,54.76
2023-02-13T16:57:34.461Z,54.94
2023-02-13T17:00:22.630Z,54.72
2023-02-13T17:02:50.836Z,54.59
2023-02-13T17:05:27.708Z,55.10
2023-02-13T17:08:01.289Z,55.31
2023-02-13T17:10:37.990Z,55.64
2023-02-13T17:13:13.303Z,55.69
2023-02-13T17:15:45.224Z,55.87
2023-02-13T17:18:12.427Z,55.68
2023-02-13T17:20:43.167Z,56.44
2023-02-13T17:23:20.701Z,56.13
2023-02-13T17:25:51.213Z,56.41
2023-02-13T17:28:26.452Z,56.00
2023-02-13T17:30:56.573Z,56.11
2023-02-13T17:33:26.338Z,56.28
2023-02-13T17:35:53.416Z,55.66
2023-02-13T17:38:20.594Z,55.75
2023-02-13T17:40:47.745Z,55.79
2023-02-13T17:43:17.042Z,56.06
2023-02-13T17:45:44.027Z,56.39
2023-02-13T17:48:10.682Z,55.90
2023-02-13T17:50:38.172Z,55.64
2023-02-13T17:53:07.582Z,55.74
2023-02-13T17:55:35.356Z,55.85
2023-02-13T17:58:02.417Z,56.25
2023-02-13T18:00:32.655Z,55.76
2023-02-13T18:03:00.519Z,55.66
2023-02-13T18:05:28.705Z,56.48
2023-02-13T18:07:55.772Z,56.33
2023-02-13T18:10:26.030Z,55.55
2023-02-13T18:12:53.952Z,55.93
2023-02-13T18:15:21.382Z,55.61
2023-02-13T18:17:48.266Z,56.41
2023-02-13T18:20:18.038Z,55.91
2023-02-13T18:22:44.709Z,56.96
2023-02-13T18:25:11.522Z,57.04
2023-02-13T18:27:38.358Z,57.72
2023-02-13T18:30:06.456Z,57.04
2023-02-13T18:32:33.684Z,56.88
2023-02-13T18:35:00.994Z,57.73
2023-02-13T18:37:29.408Z,57.02
2023-02-13T18:39:56.905Z,57.23
2023-02-13T18:42:23.569Z,56.87
2023-02-13T18:44:50.304Z,57.05
2023-02-13T18:47:17.464Z,57.01
2023-02-13T18:49:46.251Z,57.48
2023-02-13T18:52:13.336Z,58.27
2023-02-13T18:54:39.938Z,57.94
2023-02-13T18:57:06.948Z,58.82
2023-02-13T18:59:33.607Z,57.77
2023-02-13T19:02:02.110Z,58.33
2023-02-13T19:04:29.761Z,58.21
2023-02-13T19:06:56.457Z,57.96
2023-02-13T19:09:23.018Z,58.88
2023-02-13T19:11:49.809Z,57.93
2023-02-13T19:14:16.437Z,58.15
2023-02-13T19:16:43.166Z,58.57
2023-02-13T19:19:10.365Z,57.87
2023-02-13T19:21:38.407Z,58.01
2023-02-13T19:24:08.620Z,58.34
2023-02-13T19:26:35.449Z,59.51
2023-02-13T19:29:02.054Z,59.48
2023-02-13T19:31:30.701Z,60.27
2023-02-13T19:33:57.478Z,60.76
2023-02-13T19:36:26.321Z,61.48
2023-02-13T19:38:55.321Z,60.76
2023-02-13T19:41:21.909Z,61.20
2023-02-13T19:43:53.170Z,60.19
2023-02-13T19:46:22.910Z,59.67
2023-02-13T19:48:50.524Z,61.25
2023-02-13T19:51:19.943Z,60.85
2023-02-13T19:53:47.097Z,59.84
2023-02-13T19:56:14.617Z,59.79
2023-02-13T19:58:42.446Z,60.11
2023-02-13T20:01:11.185Z,60.43
2023-02-13T20:03:37.821Z,60.74
2023-02-13T20:06:09.726Z,60.07
2023-02-13T20:08:36.752Z,60.48
2023-02-13T20:11:05.863Z,59.90
2023-02-13T20:13:32.519Z,60.32
2023-02-13T20:15:59.187Z,59.54
2023-02-13T20:18:25.940Z,60.31
2023-02-13T20:20:52.468Z,59.65
2023-02-13T20:23:19.993Z,59.95
2023-02-13T20:25:46.589Z,59.46
2023-02-13T20:28:13.339Z,58.72
2023-02-13T20:30:44.368Z,59.30
2023-02-13T20:33:11.127Z,59.82
2023-02-13T20:35:37.612Z,60.15
2023-02-13T20:38:04.643Z,59.42
2023-02-13T20:40:31.240Z,59.71
2023-02-13T20:42:58.029Z,60.11
2023-02-13T20:45:25.124Z,59.94
2023-02-13T20:47:51.788Z,60.13
2023-02-13T20:50:18.762Z,59.08
2023-02-13T20:52:45.384Z,59.21
2023-02-13T20:55:11.925Z,58.83
2023-02-13T20:57:38.845Z,59.86
2023-02-13T21:00:07.232Z,57.43
2023-02-13T21:02:33.889Z,58.96
2023-02-13T21:05:00.764Z,58.25
2023-02-13T21:07:27.348Z,58.27
2023-02-13T21:09:53.964Z,57.87
2023-02-13T21:12:20.709Z,56.93
2023-02-13T21:14:47.285Z,56.38
2023-02-13T21:17:13.945Z,57.71
2023-02-13T21:19:41.681Z,58.14
2023-02-13T21:22:12.041Z,58.55
2023-02-13T21:24:40.996Z,58.72
2023-02-13T21:27:08.769Z,57.76
2023-02-13T21:29:35.939Z,57.06
2023-02-13T21:32:03.277Z,57.04
2023-02-13T21:34:30.386Z,55.99
2023-02-13T21:36:57.012Z,55.95
2023-02-13T21:39:23.738Z,56.15
2023-02-13T21:41:50.430Z,58.07
2023-02-13T21:44:17.128Z,56.01
2023-02-13T21:46:45.160Z,56.99
2023-02-13T21:49:14.737Z,55.80
2023-02-13T21:51:42.006Z,55.46
2023-02-13T21:54:09.508Z,55.45
2023-02-13T21:56:39.008Z,56.86
2023-02-13T21:59:06.234Z,56.43
2023-02-13T22:01:44.767Z,56.73
2023-02-13T22:04:11.449Z,57.05
2023-02-13T22:06:39.777Z,56.54
2023-02-13T22:09:09.478Z,56.00
2023-02-13T22:11:36.788Z,55.23
2023-02-13T22:14:05.266Z,56.71
2023-02-13T22:16:37.278Z,57.41
2023-02-13T22:19:05.391Z,58.18
2023-02-13T22:21:33.204Z,57.71
2023-02-13T22:24:00.605Z,58.96
2023-02-13T22:26:45.370Z,58.50
2023-02-13T22:29:14.678Z,57.87
2023-02-13T22:31:41.658Z,57.73
2023-02-13T22:34:13.242Z,56.93
2023-02-13T22:36:41.046Z,56.81
2023-02-13T22:39:09.334Z,55.98
2023-02-13T22:41:36.579Z,56.24
2023-02-13T22:44:03.482Z,56.73
2023-02-13T22:46:32.248Z,57.39
2023-02-13T22:48:59.630Z,55.17
2023-02-13T22:51:32.603Z,56.14
2023-02-13T22:53:59.894Z,55.67
2023-02-13T22:56:28.511Z,56.13
2023-02-13T22:58:55.189Z,55.06
2023-02-13T23:01:23.891Z,56.13
2023-02-13T23:03:50.702Z,54.78
2023-02-13T23:06:18.590Z,56.14
2023-02-13T23:08:48.855Z,54.79
2023-02-13T23:11:35.558Z,55.80
2023-02-13T23:14:02.904Z,56.57
2023-02-13T23:16:52.769Z,56.64
2023-02-13T23:19:20.730Z,56.96
2023-02-13T23:21:47.338Z,57.11
2023-02-13T23:24:13.988Z,57.06
2023-02-13T23:26:40.511Z,55.84
2023-02-13T23:29:07.050Z,56.73
2023-02-13T23:31:33.690Z,56.82
2023-02-13T23:34:00.311Z,56.85
2023-02-13T23:36:26.831Z,57.10
2023-02-13T23:38:53.430Z,56.20
2023-02-13T23:41:20.236Z,57.02
2023-02-13T23:43:46.807Z,57.44
2023-02-13T23:46:13.505Z,57.91
2023-02-13T23:48:40.237Z,56.53
2023-02-13T23:51:06.806Z,56.72
2023-02-13T23:53:36.776Z,57.37
2023-02-13T23:56:04.447Z,57.82
2023-02-13T23:58:31.143Z,57.76
